IBE04EB LEMD-LESO
Flight info
| Callsign | IBE04EB |
|---|---|
| Flight time | 0h 44m |
| Altitude | 26000 |
| Route | RBO N867 GASMO T430 DITOP N10 SSN |
| Aircraft | A319/M-SDE3FGHIRWY/LB1 |
Departure
| Time | 2026-05-04 09:51 |
|---|---|
| Airport | Adolfo Suárez Madrid–Barajas Airport (LEMD) |
Arrival
| Time | 2026-05-04 10:35 |
|---|---|
| Airport | San Sebastián Airport (LESO) |
| Time | Latitude | Longitude | Altitude | Speed | Heading |
|---|---|---|---|---|---|
| 2026-05-04 09:07 | 40.49525 | -3.59157 | 2029 ft | 0 kts | 90° |
| 2026-05-04 09:25 | 40.49540 | -3.59218 | 2026 ft | 4 kts | 4° |
| 2026-05-04 09:25 | 40.49552 | -3.59218 | 2027 ft | 0 kts | 360° |
| 2026-05-04 09:28 | 40.49560 | -3.59218 | 2022 ft | 4 kts | 360° |
| 2026-05-04 09:28 | 40.49600 | -3.59218 | 2022 ft | 10 kts | 359° |
| 2026-05-04 09:28 | 40.49665 | -3.59219 | 2022 ft | 8 kts | 0° |
| 2026-05-04 09:29 | 40.49714 | -3.59218 | 2022 ft | 6 kts | 0° |
| 2026-05-04 09:29 | 40.49744 | -3.59176 | 2022 ft | 9 kts | 79° |
| 2026-05-04 09:29 | 40.49744 | -3.59106 | 2022 ft | 6 kts | 90° |
| 2026-05-04 09:29 | 40.49744 | -3.59073 | 2024 ft | 1 kts | 90° |
| 2026-05-04 09:30 | 40.49745 | -3.59071 | 2025 ft | 0 kts | 90° |
| 2026-05-04 09:34 | 40.49732 | -3.58623 | 2028 ft | 1 kts | 107° |
| 2026-05-04 09:34 | 40.49698 | -3.58631 | 2022 ft | 7 kts | 198° |
| 2026-05-04 09:34 | 40.49620 | -3.58636 | 2022 ft | 14 kts | 179° |
| 2026-05-04 09:34 | 40.49496 | -3.58634 | 2022 ft | 19 kts | 180° |
| 2026-05-04 09:35 | 40.49372 | -3.58634 | 2022 ft | 16 kts | 180° |
| 2026-05-04 09:35 | 40.49257 | -3.58633 | 2022 ft | 17 kts | 179° |
| 2026-05-04 09:35 | 40.49146 | -3.58632 | 2022 ft | 15 kts | 179° |
| 2026-05-04 09:35 | 40.49043 | -3.58632 | 2022 ft | 17 kts | 180° |
| 2026-05-04 09:37 | 40.48778 | -3.58628 | 2025 ft | 3 kts | 166° |
| 2026-05-04 09:37 | 40.48760 | -3.58556 | 2018 ft | 15 kts | 91° |
| 2026-05-04 09:38 | 40.48760 | -3.58407 | 2016 ft | 17 kts | 90° |
| 2026-05-04 09:38 | 40.48760 | -3.58253 | 2010 ft | 17 kts | 90° |
| 2026-05-04 09:38 | 40.48764 | -3.58096 | 2004 ft | 17 kts | 75° |
| 2026-05-04 09:38 | 40.48851 | -3.58017 | 2002 ft | 15 kts | 59° |
| 2026-05-04 09:39 | 40.48857 | -3.57886 | 1997 ft | 14 kts | 89° |
| 2026-05-04 09:39 | 40.48858 | -3.57738 | 1992 ft | 19 kts | 90° |
| 2026-05-04 09:39 | 40.48859 | -3.57546 | 1989 ft | 22 kts | 89° |
| 2026-05-04 09:39 | 40.48860 | -3.57347 | 1985 ft | 21 kts | 89° |
| 2026-05-04 09:40 | 40.48861 | -3.57160 | 1982 ft | 20 kts | 89° |
| 2026-05-04 09:40 | 40.48861 | -3.56984 | 1979 ft | 19 kts | 90° |
| 2026-05-04 09:40 | 40.48861 | -3.56812 | 1976 ft | 18 kts | 89° |
| 2026-05-04 09:40 | 40.48862 | -3.56652 | 1973 ft | 17 kts | 90° |
| 2026-05-04 09:41 | 40.48862 | -3.56495 | 1968 ft | 17 kts | 90° |
| 2026-05-04 09:42 | 40.49355 | -3.56244 | 1962 ft | 6 kts | 359° |
| 2026-05-04 09:43 | 40.49405 | -3.56245 | 1962 ft | 10 kts | 359° |
| 2026-05-04 09:43 | 40.49497 | -3.56248 | 1961 ft | 14 kts | 359° |
| 2026-05-04 09:43 | 40.49587 | -3.56249 | 1967 ft | 13 kts | 0° |
| 2026-05-04 09:43 | 40.49684 | -3.56249 | 1961 ft | 13 kts | 0° |
| 2026-05-04 09:44 | 40.49752 | -3.56248 | 1961 ft | 5 kts | 3° |
| 2026-05-04 09:44 | 40.49788 | -3.56248 | 1961 ft | 9 kts | 358° |
| 2026-05-04 09:44 | 40.49868 | -3.56250 | 1961 ft | 11 kts | 360° |
| 2026-05-04 09:46 | 40.49949 | -3.56089 | 1961 ft | 4 kts | 288° |
| 2026-05-04 09:46 | 40.49942 | -3.56117 | 1958 ft | 5 kts | 232° |
| 2026-05-04 09:46 | 40.49887 | -3.56143 | 1959 ft | 9 kts | 185° |
| 2026-05-04 09:47 | 40.49836 | -3.56144 | 1959 ft | 6 kts | 179° |
| 2026-05-04 09:47 | 40.49792 | -3.56143 | 1959 ft | 9 kts | 179° |
| 2026-05-04 09:49 | 40.49387 | -3.55687 | 1962 ft | 24 kts | 142° |
| 2026-05-04 09:49 | 40.49047 | -3.55344 | 1954 ft | 95 kts | 142° |
| 2026-05-04 09:49 | 40.48375 | -3.54660 | 1937 ft | 147 kts | 142° |
| 2026-05-04 09:51 | 40.42422 | -3.48725 | 4371 ft | 225 kts | 144° |
| 2026-05-04 09:51 | 40.41107 | -3.47408 | 4722 ft | 250 kts | 144° |
| 2026-05-04 09:51 | 40.39663 | -3.45958 | 5210 ft | 271 kts | 144° |
| 2026-05-04 09:51 | 40.38146 | -3.44427 | 5995 ft | 279 kts | 144° |
| 2026-05-04 09:52 | 40.36598 | -3.42863 | 6865 ft | 283 kts | 145° |
| 2026-05-04 09:52 | 40.34909 | -3.41515 | 7741 ft | 286 kts | 153° |
| 2026-05-04 09:52 | 40.33172 | -3.40222 | 8621 ft | 290 kts | 148° |
| 2026-05-04 09:52 | 40.31689 | -3.38399 | 9434 ft | 297 kts | 127° |
| 2026-05-04 09:53 | 40.30736 | -3.35985 | 10260 ft | 303 kts | 108° |
| 2026-05-04 09:53 | 40.30427 | -3.33161 | 10589 ft | 327 kts | 89° |
| 2026-05-04 09:53 | 40.30619 | -3.30094 | 10827 ft | 350 kts | 79° |
| 2026-05-04 09:53 | 40.31297 | -3.26968 | 11311 ft | 361 kts | 68° |
| 2026-05-04 09:54 | 40.32420 | -3.24002 | 11982 ft | 366 kts | 57° |
| 2026-05-04 09:54 | 40.33950 | -3.21322 | 12697 ft | 369 kts | 49° |
| 2026-05-04 09:54 | 40.35606 | -3.18724 | 13387 ft | 373 kts | 49° |
| 2026-05-04 09:54 | 40.37436 | -3.16307 | 14053 ft | 376 kts | 37° |
| 2026-05-04 09:55 | 40.39649 | -3.14481 | 14719 ft | 377 kts | 24° |
| 2026-05-04 09:55 | 40.42131 | -3.13361 | 15396 ft | 378 kts | 10° |
| 2026-05-04 09:55 | 40.44746 | -3.13004 | 16025 ft | 380 kts | 357° |
| 2026-05-04 09:55 | 40.47372 | -3.13436 | 16629 ft | 382 kts | 346° |
| 2026-05-04 09:56 | 40.49974 | -3.14207 | 17234 ft | 385 kts | 346° |
| 2026-05-04 09:56 | 40.52598 | -3.14983 | 17837 ft | 388 kts | 346° |
| 2026-05-04 09:56 | 40.55230 | -3.15761 | 18412 ft | 392 kts | 346° |
| 2026-05-04 09:56 | 40.57917 | -3.16550 | 18982 ft | 395 kts | 346° |
| 2026-05-04 09:57 | 40.60613 | -3.17341 | 19551 ft | 398 kts | 346° |
| 2026-05-04 09:57 | 40.63328 | -3.18138 | 20115 ft | 401 kts | 346° |
| 2026-05-04 09:57 | 40.66063 | -3.18944 | 20663 ft | 404 kts | 346° |
| 2026-05-04 09:57 | 40.68820 | -3.19759 | 21165 ft | 407 kts | 346° |
| 2026-05-04 09:58 | 40.71598 | -3.20581 | 21647 ft | 411 kts | 346° |
| 2026-05-04 09:58 | 40.74395 | -3.21407 | 22110 ft | 414 kts | 346° |
| 2026-05-04 09:58 | 40.77212 | -3.22241 | 22559 ft | 417 kts | 346° |
| 2026-05-04 10:00 | 40.97635 | -3.22011 | 25341 ft | 441 kts | 9° |
| 2026-05-04 10:00 | 41.00652 | -3.21251 | 25714 ft | 443 kts | 9° |
| 2026-05-04 10:02 | 41.22217 | -3.16418 | 26009 ft | 453 kts | 8° |
| 2026-05-04 10:04 | 41.43953 | -3.11478 | 26021 ft | 452 kts | 8° |
| 2026-05-04 10:04 | 41.47052 | -3.10770 | 26021 ft | 452 kts | 8° |
| 2026-05-04 10:04 | 41.50149 | -3.10064 | 26022 ft | 451 kts | 8° |
| 2026-05-04 10:04 | 41.53240 | -3.09361 | 26020 ft | 451 kts | 8° |
| 2026-05-04 10:05 | 41.56331 | -3.08661 | 26020 ft | 450 kts | 8° |
| 2026-05-04 10:05 | 41.59419 | -3.07963 | 26018 ft | 450 kts | 8° |
| 2026-05-04 10:05 | 41.62508 | -3.07266 | 26015 ft | 450 kts | 8° |
| 2026-05-04 10:05 | 41.65592 | -3.06570 | 26013 ft | 450 kts | 8° |
| 2026-05-04 10:06 | 41.68680 | -3.05866 | 26009 ft | 450 kts | 9° |
| 2026-05-04 10:06 | 41.71706 | -3.04793 | 26006 ft | 451 kts | 18° |
| 2026-05-04 10:06 | 41.74572 | -3.03074 | 26001 ft | 453 kts | 28° |
| 2026-05-04 10:08 | 41.89969 | -2.88271 | 25991 ft | 455 kts | 35° |
| 2026-05-04 10:08 | 41.92527 | -2.85772 | 25991 ft | 455 kts | 35° |
| 2026-05-04 10:08 | 41.95087 | -2.83264 | 25989 ft | 455 kts | 35° |
| 2026-05-04 10:08 | 41.97647 | -2.80749 | 25986 ft | 456 kts | 35° |
| 2026-05-04 10:09 | 42.00205 | -2.78233 | 25990 ft | 456 kts | 35° |
| 2026-05-04 10:09 | 42.01903 | -2.76561 | 25991 ft | 457 kts | 35° |
| 2026-05-04 10:09 | 42.04464 | -2.74035 | 25987 ft | 457 kts | 35° |
| 2026-05-04 10:09 | 42.07028 | -2.71505 | 25988 ft | 457 kts | 35° |
| 2026-05-04 10:10 | 42.09594 | -2.68970 | 25993 ft | 458 kts | 35° |
| 2026-05-04 10:10 | 42.12162 | -2.66432 | 26006 ft | 457 kts | 35° |
| 2026-05-04 10:10 | 42.14724 | -2.63896 | 26013 ft | 457 kts | 35° |
| 2026-05-04 10:10 | 42.17285 | -2.61356 | 26018 ft | 457 kts | 35° |
| 2026-05-04 10:11 | 42.19844 | -2.58816 | 26020 ft | 457 kts | 35° |
| 2026-05-04 10:11 | 42.22404 | -2.56276 | 26016 ft | 456 kts | 35° |
| 2026-05-04 10:11 | 42.24959 | -2.53738 | 26015 ft | 456 kts | 35° |
| 2026-05-04 10:11 | 42.27512 | -2.51199 | 26014 ft | 456 kts | 35° |
| 2026-05-04 10:12 | 42.30069 | -2.48658 | 26014 ft | 456 kts | 35° |
| 2026-05-04 10:12 | 42.32627 | -2.46119 | 26021 ft | 456 kts | 35° |
| 2026-05-04 10:12 | 42.35182 | -2.43577 | 26022 ft | 456 kts | 35° |
| 2026-05-04 10:12 | 42.37733 | -2.41032 | 26027 ft | 455 kts | 35° |
| 2026-05-04 10:13 | 42.40275 | -2.38491 | 25845 ft | 453 kts | 35° |
| 2026-05-04 10:13 | 42.42806 | -2.35958 | 25588 ft | 452 kts | 35° |
| 2026-05-04 10:13 | 42.45319 | -2.33441 | 24920 ft | 448 kts | 35° |
| 2026-05-04 10:13 | 42.47810 | -2.30944 | 24244 ft | 443 kts | 36° |
| 2026-05-04 10:14 | 42.50275 | -2.28469 | 23579 ft | 439 kts | 36° |
| 2026-05-04 10:14 | 42.52713 | -2.26015 | 22935 ft | 435 kts | 36° |
| 2026-05-04 10:16 | 42.69149 | -2.09445 | 19052 ft | 407 kts | 36° |
| 2026-05-04 10:16 | 42.71411 | -2.07157 | 18586 ft | 404 kts | 35° |
| 2026-05-04 10:16 | 42.73653 | -2.04892 | 18118 ft | 400 kts | 35° |
| 2026-05-04 10:16 | 42.75876 | -2.02642 | 17638 ft | 396 kts | 35° |
| 2026-05-04 10:17 | 42.78078 | -2.00410 | 17177 ft | 393 kts | 36° |
| 2026-05-04 10:17 | 42.80263 | -1.98188 | 16702 ft | 390 kts | 36° |
| 2026-05-04 10:19 | 42.95009 | -1.83154 | 13162 ft | 369 kts | 36° |
| 2026-05-04 10:19 | 42.97055 | -1.81061 | 12626 ft | 366 kts | 36° |
| 2026-05-04 10:19 | 42.99180 | -1.79180 | 12073 ft | 363 kts | 25° |
| 2026-05-04 10:19 | 43.01512 | -1.77935 | 11522 ft | 358 kts | 13° |
| 2026-05-04 10:20 | 43.03949 | -1.77378 | 10974 ft | 354 kts | 1° |
| 2026-05-04 10:20 | 43.06366 | -1.77521 | 10744 ft | 340 kts | 350° |
| 2026-05-04 10:20 | 43.08647 | -1.78038 | 10616 ft | 326 kts | 348° |
| 2026-05-04 10:20 | 43.10843 | -1.78530 | 10489 ft | 314 kts | 349° |
| 2026-05-04 10:21 | 43.12957 | -1.78995 | 10364 ft | 302 kts | 349° |
| 2026-05-04 10:21 | 43.15005 | -1.79443 | 10147 ft | 295 kts | 349° |
| 2026-05-04 10:21 | 43.17007 | -1.79883 | 10049 ft | 291 kts | 349° |
| 2026-05-04 10:21 | 43.19001 | -1.80328 | 9985 ft | 289 kts | 349° |
| 2026-05-04 10:22 | 43.22988 | -1.81220 | 9269 ft | 290 kts | 349° |
| 2026-05-04 10:22 | 43.24980 | -1.81667 | 8884 ft | 289 kts | 349° |
| 2026-05-04 10:22 | 43.26952 | -1.82108 | 8496 ft | 287 kts | 349° |
| 2026-05-04 10:23 | 43.28914 | -1.82546 | 8158 ft | 283 kts | 349° |
| 2026-05-04 10:23 | 43.30793 | -1.83244 | 7655 ft | 278 kts | 335° |
| 2026-05-04 10:25 | 43.41059 | -1.94490 | 4900 ft | 262 kts | 318° |
| 2026-05-04 10:25 | 43.42575 | -1.95849 | 4529 ft | 262 kts | 337° |
| 2026-05-04 10:25 | 43.44372 | -1.96214 | 4159 ft | 265 kts | 3° |
| 2026-05-04 10:25 | 43.46104 | -1.95406 | 3948 ft | 267 kts | 31° |
| 2026-05-04 10:26 | 43.47417 | -1.93592 | 3883 ft | 272 kts | 57° |
| 2026-05-04 10:26 | 43.48351 | -1.91322 | 3783 ft | 272 kts | 60° |
| 2026-05-04 10:26 | 43.49262 | -1.89038 | 3674 ft | 272 kts | 60° |
| 2026-05-04 10:26 | 43.50170 | -1.86752 | 3567 ft | 271 kts | 60° |
| 2026-05-04 10:27 | 43.51054 | -1.84522 | 3458 ft | 259 kts | 60° |
| 2026-05-04 10:27 | 43.51893 | -1.82404 | 3357 ft | 246 kts | 60° |
| 2026-05-04 10:27 | 43.52691 | -1.80392 | 3261 ft | 233 kts | 60° |
| 2026-05-04 10:27 | 43.53457 | -1.78464 | 3173 ft | 227 kts | 60° |
| 2026-05-04 10:28 | 43.54202 | -1.76563 | 3085 ft | 222 kts | 64° |
| 2026-05-04 10:28 | 43.54489 | -1.74549 | 2992 ft | 212 kts | 94° |
| 2026-05-04 10:28 | 43.54079 | -1.72667 | 2956 ft | 199 kts | 122° |
| 2026-05-04 10:28 | 43.53268 | -1.71196 | 2845 ft | 187 kts | 131° |
| 2026-05-04 10:29 | 43.52475 | -1.69843 | 2760 ft | 176 kts | 131° |
| 2026-05-04 10:29 | 43.51737 | -1.68584 | 2689 ft | 163 kts | 131° |
| 2026-05-04 10:29 | 43.51033 | -1.67386 | 2630 ft | 159 kts | 131° |
| 2026-05-04 10:29 | 43.50331 | -1.66217 | 2568 ft | 157 kts | 135° |
| 2026-05-04 10:30 | 43.49424 | -1.65476 | 2528 ft | 147 kts | 167° |
| 2026-05-04 10:30 | 43.48441 | -1.65401 | 2481 ft | 139 kts | 194° |
| 2026-05-04 10:30 | 43.47578 | -1.65895 | 2397 ft | 133 kts | 218° |
| 2026-05-04 10:30 | 43.46860 | -1.66687 | 2330 ft | 132 kts | 222° |
| 2026-05-04 10:31 | 43.46148 | -1.67473 | 2256 ft | 131 kts | 221° |
| 2026-05-04 10:31 | 43.45435 | -1.68260 | 2192 ft | 131 kts | 222° |
| 2026-05-04 10:32 | 43.41179 | -1.72958 | 1305 ft | 130 kts | 222° |
| 2026-05-04 10:33 | 43.40475 | -1.73732 | 1125 ft | 129 kts | 222° |
| 2026-05-04 10:33 | 43.39773 | -1.74502 | 952 ft | 129 kts | 222° |
| 2026-05-04 10:33 | 43.39075 | -1.75272 | 779 ft | 129 kts | 223° |
| 2026-05-04 10:33 | 43.38377 | -1.76037 | 591 ft | 129 kts | 221° |
| 2026-05-04 10:34 | 43.37678 | -1.76804 | 408 ft | 128 kts | 224° |
| 2026-05-04 10:34 | 43.36994 | -1.77589 | 228 ft | 128 kts | 221° |
| 2026-05-04 10:34 | 43.36293 | -1.78348 | 68 ft | 128 kts | 222° |
| 2026-05-04 10:34 | 43.35647 | -1.79066 | 18 ft | 94 kts | 218° |
| 2026-05-04 10:35 | 43.35370 | -1.79367 | 20 ft | 7 kts | 219° |
| 2026-05-04 10:35 | 43.35350 | -1.79390 | 20 ft | 6 kts | 219° |
| 2026-05-04 10:35 | 43.35294 | -1.79452 | 20 ft | 17 kts | 219° |
| 2026-05-04 10:35 | 43.35194 | -1.79562 | 21 ft | 19 kts | 219° |
| 2026-05-04 10:36 | 43.35097 | -1.79679 | 20 ft | 18 kts | 239° |
| 2026-05-04 10:36 | 43.35051 | -1.79725 | 20 ft | 8 kts | 120° |
| 2026-05-04 10:36 | 43.35081 | -1.79681 | 20 ft | 9 kts | 29° |
| 2026-05-04 10:36 | 43.35140 | -1.79621 | 20 ft | 10 kts | 38° |
| 2026-05-04 10:37 | 43.35207 | -1.79547 | 21 ft | 14 kts | 39° |
| 2026-05-04 10:37 | 43.35286 | -1.79460 | 20 ft | 16 kts | 39° |
| 2026-05-04 10:37 | 43.35378 | -1.79358 | 20 ft | 19 kts | 39° |
| 2026-05-04 10:37 | 43.35489 | -1.79240 | 19 ft | 20 kts | 37° |
| 2026-05-04 10:39 | 43.35637 | -1.79230 | 17 ft | 1 kts | 221° |
| 2026-05-04 10:39 | 43.35634 | -1.79233 | 17 ft | 1 kts | 221° |
| 2026-05-04 10:39 | 43.35632 | -1.79236 | 17 ft | 0 kts | 220° |